Cedar City Regional Airport
KCDC : now visible

Airfield :











YOU CAN JOIN US ON...

 
LOGIN :

Register | Disclaimer

   EN    FR    IT 

 









Legend :    VFR   Marginal VFR   IFR   Intensive IFR   Very Intensive IFR
Visi :
Ceiling :
>= 8 km
>= 3000ft
5 to 8 km
1000 to 3000 ft
1500m to 5 km
500 to 1000 ft
800 to 1500m
200 to 500 ft
< 800m
< 200 ft
Symbols :   Thunderstorms  Fog  Heavy snow  Heavy precipitations  Wind > 20 kt






- Airport Elevation : 5622 ft
- IATA code : CDC


KCDC - Cedar City Regional

CURRENT METAR :
  • 070353Z AUTO 19010KT 10SM CLR 25/M12 A3005 RMK AO2 SLP082 T02501122

EXPIRED METARs :
  • 070253Z AUTO 21008KT 10SM CLR 27/M13 A3004 RMK AO2 SLP077 T02721128 55002
  • 070153Z AUTO 21011G20KT 10SM CLR 31/M12 A3004 RMK AO2 SLP080 T03061117

TAF KCDC
Valid from the 07 at 00:00 until the 08 at 00:00 UTC


062330Z 0700/0724 22012G20KT P6SM SKC
FM070300 20009KT P6SM SKC
FM071600 20012G20KT P6SM SKC
FM071900 21023G35KT P6SM SKC
KZLC FIR / North America



MET'MAP, your aeronautical weather chart ! - Copyright ORBIFLY December 2007 - Disclaimer

ORBIFLY MET'MAP TEAM :

Programming & Development : Alexandra Zaïnal
Concept & original design : Baudouin d'Aumeries
Assistance for programming : Marc-Olivier Méhu
Technical & hardware support : Manuel Goepfert

Contact : metmap@orbifly.com




SOURCES & CREDITS :

   NOAA       Earth
Advisory